Startpagina
METAR-TAF:

METAR-TAF

Vliegvelden :

Aeroporto João Paulo II

Ponta Delgada, Azoren, Portugal

breedte: 37-44N, lengte: 025-42W, hoogte: 71 m

Actueel weer

Dit bericht is 27 minuten geleden gemaakt, om 11:00 UTC
Wind 8 kt uit het noorden, variërend tussen het noordwesten en het noordnoordoosten
Temperatuur 18°C
Vochtigheid 56%
Druk 1015 hPa
Zicht 10 km of meer
Weinig wolken op 2500 ft

METAR: LPPD 191100Z 36008KT 310V030 9999 FEW025 18/09 Q1015

Tijdstip: 10:27 (11:27 UTC)

Verwachting

Dit bericht is 6 uur en het 27 minuten geleden gemaakt, om 05:00 UTC
Verwachting geldig van 19 om 06 UTC tot 20 om 06 UTC
Wind 12 kt uit het noordnoordwesten
Zicht 10 km of meer
Verspreide wolken op 1800 ft
Tijdelijke
van 19 om 06 UTC tot 20 om 06 UTC
Weinig wolken op 1500 ft
Gebroken wolken op 3000 ft

TAF: LPPD 190500Z 1906/2006 34012KT 9999 SCT018 TEMPO 1906/2006 FEW015 BKN030

Waarnemingen en weersverwachtingen van meer dan 4000 vliegvelden (METAR en TAF).

De beschikbare stations zijn de gele en rode punten op de kaart.

Ga met uw muis naar het station om de naam te zien.

Klik dan om waarnemingen en weersverwachtingen te zien.

kaart wijzigen: klik op de groene knoppen met een zwart kruis om in te zoomen, op de groene knop met een streepje om uit te zoomen of op de groene pijlen voor aangrenzende kaarten.


METAR-TAF: